createdAt,value
2017-12-17T00:01:57.504Z,100437
2017-12-17T00:06:59.121Z,100432
2017-12-17T00:12:00.616Z,100425
2017-12-17T00:17:02.125Z,100422
2017-12-17T00:22:03.593Z,100436
2017-12-17T00:27:05.123Z,100418
2017-12-17T00:32:06.668Z,100439
2017-12-17T00:37:08.176Z,100445
2017-12-17T00:42:09.695Z,100438
2017-12-17T00:47:11.202Z,100447
2017-12-17T00:52:12.713Z,100443
2017-12-17T00:57:14.989Z,100440
2017-12-17T01:02:17.280Z,100444
2017-12-17T01:07:19.544Z,100450
2017-12-17T01:12:21.171Z,100454
2017-12-17T01:17:22.685Z,100451
2017-12-17T01:22:24.975Z,100447
2017-12-17T01:27:26.520Z,100460
2017-12-17T01:32:28.027Z,100466
2017-12-17T01:37:30.283Z,100475
2017-12-17T01:42:31.813Z,100482
2017-12-17T01:47:33.354Z,100480
2017-12-17T01:52:34.856Z,100487
2017-12-17T01:57:36.361Z,100489
2017-12-17T02:02:37.886Z,100489
2017-12-17T02:07:39.461Z,100491
2017-12-17T02:12:40.964Z,100492
2017-12-17T02:17:42.502Z,100499
2017-12-17T02:22:43.989Z,100502
2017-12-17T02:27:45.504Z,100506
2017-12-17T02:32:46.986Z,100508
2017-12-17T02:37:48.479Z,100509
2017-12-17T02:42:50.021Z,100511
2017-12-17T02:47:51.543Z,100517
2017-12-17T02:52:53.864Z,100515
2017-12-17T02:57:55.422Z,100521
2017-12-17T03:02:56.928Z,100515
2017-12-17T03:07:58.514Z,100519
2017-12-17T03:13:00.042Z,100522
2017-12-17T03:18:01.679Z,100528
2017-12-17T03:23:03.949Z,100539
2017-12-17T03:28:06.488Z,100523
2017-12-17T03:33:08.012Z,100541
2017-12-17T03:38:10.249Z,100544
2017-12-17T03:43:11.723Z,100546
2017-12-17T03:48:13.232Z,100550
2017-12-17T03:53:14.806Z,100546
2017-12-17T03:58:17.062Z,100544
2017-12-17T04:03:18.562Z,100548
2017-12-17T04:08:20.829Z,100556
2017-12-17T04:13:22.467Z,100556
2017-12-17T04:18:24.030Z,100566
2017-12-17T04:23:25.531Z,100582
2017-12-17T04:28:27.007Z,100590
2017-12-17T04:33:29.275Z,100600
2017-12-17T04:38:30.753Z,100606
2017-12-17T04:43:33.008Z,100608
2017-12-17T04:48:34.509Z,100599
2017-12-17T04:53:36.724Z,100596
2017-12-17T04:58:38.248Z,100619
2017-12-17T05:03:39.736Z,100619
2017-12-17T05:08:42.013Z,100631
2017-12-17T05:13:44.478Z,100633
2017-12-17T05:18:45.995Z,100629
2017-12-17T05:23:47.528Z,100641
2017-12-17T05:28:49.066Z,100646
2017-12-17T05:33:50.683Z,100661
2017-12-17T05:38:52.922Z,100663
2017-12-17T05:43:54.472Z,100669
2017-12-17T05:48:55.983Z,100668
2017-12-17T05:53:57.511Z,100671
2017-12-17T05:58:59.042Z,100670
2017-12-17T06:04:00.552Z,100686
2017-12-17T06:09:02.143Z,100670
2017-12-17T06:14:03.663Z,100680
2017-12-17T06:19:05.130Z,100684
2017-12-17T06:24:06.626Z,100696
2017-12-17T06:29:08.142Z,100699
2017-12-17T06:34:09.761Z,100695
2017-12-17T06:39:11.251Z,100701
2017-12-17T06:44:12.836Z,100703
2017-12-17T06:49:22.080Z,100714
2017-12-17T06:54:23.708Z,100728
2017-12-17T06:59:25.229Z,100718
2017-12-17T07:04:27.456Z,100728
2017-12-17T07:09:28.994Z,100737
2017-12-17T07:14:30.493Z,100752
2017-12-17T07:19:31.992Z,100748
2017-12-17T07:24:33.511Z,100752
2017-12-17T07:29:35.092Z,100774
2017-12-17T07:34:36.608Z,100790
2017-12-17T07:39:39.001Z,100791
2017-12-17T07:44:41.256Z,100795
2017-12-17T07:49:42.829Z,100802
2017-12-17T07:54:44.284Z,100819
2017-12-17T07:59:45.878Z,100821
2017-12-17T08:04:48.217Z,100830
2017-12-17T08:09:49.800Z,100831
2017-12-17T08:14:51.336Z,100839
2017-12-17T08:19:52.910Z,100847
2017-12-17T08:24:54.422Z,100853
2017-12-17T08:29:55.950Z,100853
2017-12-17T08:34:57.420Z,100864
2017-12-17T08:39:59.010Z,100868
2017-12-17T08:45:00.516Z,100875
2017-12-17T08:50:02.779Z,100883
2017-12-17T08:55:04.447Z,100882
2017-12-17T09:00:05.968Z,100900
2017-12-17T09:05:07.514Z,100903
2017-12-17T09:10:09.776Z,100915
2017-12-17T09:15:11.391Z,100917
2017-12-17T09:20:12.889Z,100919
2017-12-17T09:25:14.448Z,100924
2017-12-17T09:30:15.958Z,100936
2017-12-17T09:35:18.223Z,100934
2017-12-17T09:40:19.737Z,100951
2017-12-17T09:45:21.281Z,100949
2017-12-17T09:50:23.556Z,100963
2017-12-17T09:55:25.763Z,100956
2017-12-17T10:00:27.380Z,100949
2017-12-17T10:05:28.905Z,100961
2017-12-17T10:10:30.401Z,100972
2017-12-17T10:15:32.018Z,100968
2017-12-17T10:20:33.564Z,100963
2017-12-17T10:25:35.153Z,100959
2017-12-17T10:30:37.436Z,100965
2017-12-17T10:35:39.735Z,100973
2017-12-17T10:40:41.248Z,100956
2017-12-17T10:45:42.753Z,100956
2017-12-17T10:50:44.278Z,100956
2017-12-17T10:55:45.838Z,100969
2017-12-17T11:00:47.357Z,100963
2017-12-17T11:05:49.681Z,100963
2017-12-17T11:10:51.170Z,100962
2017-12-17T11:15:52.710Z,100965
2017-12-17T11:20:54.364Z,100959
2017-12-17T11:25:56.632Z,100971
2017-12-17T11:30:58.920Z,100963
2017-12-17T11:36:01.167Z,100978
2017-12-17T11:41:02.712Z,100975
2017-12-17T11:46:04.293Z,100976
2017-12-17T11:51:05.856Z,100987
2017-12-17T11:56:07.483Z,100975
2017-12-17T12:01:09.748Z,100982
2017-12-17T12:06:11.214Z,100982
2017-12-17T12:11:12.767Z,100982
2017-12-17T12:16:14.293Z,100973
2017-12-17T12:21:15.849Z,100981
2017-12-17T12:26:17.352Z,100981
2017-12-17T12:31:18.879Z,100985
2017-12-17T12:36:20.396Z,100975
2017-12-17T12:41:21.900Z,100967
2017-12-17T12:46:24.152Z,100971
2017-12-17T12:51:25.881Z,100967
2017-12-17T12:56:27.555Z,100967
2017-12-17T13:01:29.136Z,100973
2017-12-17T13:06:30.734Z,100971
2017-12-17T13:11:32.266Z,100975
2017-12-17T13:16:33.808Z,100980
2017-12-17T13:21:35.302Z,100964
2017-12-17T13:26:36.870Z,100971
2017-12-17T13:31:38.398Z,100963
2017-12-17T13:36:40.653Z,100970
2017-12-17T13:41:42.162Z,100974
2017-12-17T13:46:43.731Z,100995
2017-12-17T13:51:45.394Z,100990
2017-12-17T13:56:47.705Z,100999
2017-12-17T14:01:49.226Z,100992
2017-12-17T14:06:50.928Z,101002
2017-12-17T14:11:52.449Z,101002
2017-12-17T14:16:53.950Z,101003
2017-12-17T14:21:56.220Z,101001
2017-12-17T14:26:58.426Z,101024
2017-12-17T14:31:59.972Z,101033
2017-12-17T14:37:01.505Z,101034
2017-12-17T14:42:03.031Z,101052
2017-12-17T14:47:04.706Z,101059
2017-12-17T14:52:06.236Z,101059
2017-12-17T14:57:07.830Z,101058
2017-12-17T15:02:10.128Z,101065
2017-12-17T15:07:11.676Z,101068
2017-12-17T15:12:13.181Z,101078
2017-12-17T15:17:14.701Z,101076
2017-12-17T15:22:16.961Z,101090
2017-12-17T15:27:18.473Z,101094
2017-12-17T15:32:20.002Z,101104
2017-12-17T15:37:21.504Z,101109
2017-12-17T15:42:22.981Z,101119
2017-12-17T15:47:24.533Z,101115
2017-12-17T15:52:26.811Z,101122
2017-12-17T15:57:29.110Z,101120
2017-12-17T16:02:30.742Z,101128
2017-12-17T16:07:32.237Z,101136
2017-12-17T16:12:34.527Z,101146
2017-12-17T16:17:36.067Z,101138
2017-12-17T16:22:37.660Z,101143
2017-12-17T16:27:39.165Z,101159
2017-12-17T16:32:40.681Z,101164
2017-12-17T16:43:28.562Z,101160
2017-12-17T16:48:30.096Z,101154
2017-12-17T16:53:31.548Z,101161
2017-12-17T16:58:33.050Z,101160
2017-12-17T17:03:35.528Z,101164
2017-12-17T17:08:37.129Z,101174
2017-12-17T17:13:38.674Z,101167
2017-12-17T17:18:40.355Z,101167
2017-12-17T17:23:41.879Z,101164
2017-12-17T17:28:43.456Z,101169
2017-12-17T17:33:45.136Z,101171
2017-12-17T17:38:46.678Z,101175
2017-12-17T17:43:48.299Z,101170
2017-12-17T17:48:49.924Z,101171
2017-12-17T17:53:51.524Z,101162
2017-12-17T17:58:53.135Z,101169
2017-12-17T18:03:55.432Z,101168
2017-12-17T18:08:57.023Z,101167
2017-12-17T18:13:58.491Z,101171
2017-12-17T18:19:00.046Z,101175
2017-12-17T18:24:01.585Z,101172
2017-12-17T18:29:03.883Z,101168
2017-12-17T18:34:05.459Z,101166
2017-12-17T18:39:07.101Z,101160
2017-12-17T18:44:09.393Z,101163
2017-12-17T18:49:11.722Z,101166
2017-12-17T18:54:13.300Z,101171
2017-12-17T18:59:14.851Z,101165
2017-12-17T19:04:16.507Z,101181
2017-12-17T19:09:18.145Z,101163
2017-12-17T19:14:20.459Z,101176
2017-12-17T19:19:21.973Z,101172
2017-12-17T19:24:23.517Z,101176
2017-12-17T19:29:25.069Z,101173
2017-12-17T19:34:26.581Z,101166
2017-12-17T19:39:28.227Z,101168
2017-12-17T19:44:29.733Z,101161
2017-12-17T19:49:32.167Z,101171
2017-12-17T19:54:33.684Z,101164
2017-12-17T19:59:35.214Z,101164
2017-12-17T20:04:36.700Z,101157
2017-12-17T20:09:38.229Z,101163
2017-12-17T20:14:39.796Z,101164
2017-12-17T20:19:41.330Z,101162
2017-12-17T20:24:43.647Z,101164
2017-12-17T20:29:45.952Z,101153
2017-12-17T20:34:47.440Z,101169
2017-12-17T20:39:48.974Z,101172
2017-12-17T20:44:50.499Z,101160
2017-12-17T20:49:52.092Z,101168
2017-12-17T20:54:53.665Z,101163
2017-12-17T20:59:55.234Z,101158
2017-12-17T21:04:56.805Z,101152
2017-12-17T21:09:58.369Z,101153
2017-12-17T21:15:01.305Z,101157
2017-12-17T21:20:02.951Z,101160
2017-12-17T21:25:04.473Z,101165
2017-12-17T21:30:06.111Z,101169
2017-12-17T21:35:07.703Z,101165
2017-12-17T21:40:09.277Z,101157
2017-12-17T21:45:10.852Z,101153
2017-12-17T21:50:13.187Z,101142
2017-12-17T21:55:14.715Z,101131
2017-12-17T22:00:16.988Z,101131
2017-12-17T22:05:18.619Z,101131
2017-12-17T22:10:20.307Z,101126
2017-12-17T22:15:21.862Z,101114
2017-12-17T22:20:23.443Z,101106
2017-12-17T22:25:24.999Z,101110
2017-12-17T22:30:26.531Z,101104
2017-12-17T22:35:28.069Z,101108
2017-12-17T22:40:29.615Z,101090
2017-12-17T22:45:31.268Z,101073
2017-12-17T22:50:32.806Z,101079
2017-12-17T22:55:34.335Z,101078
2017-12-17T23:00:42.924Z,101075
2017-12-17T23:05:44.512Z,101065
2017-12-17T23:10:46.070Z,101069
2017-12-17T23:15:47.614Z,101060
2017-12-17T23:20:49.125Z,101045
2017-12-17T23:25:50.689Z,101050
2017-12-17T23:30:52.325Z,101040
2017-12-17T23:35:53.886Z,101033
2017-12-17T23:40:55.389Z,101022
2017-12-17T23:45:56.926Z,101015
2017-12-17T23:50:58.450Z,101009
2017-12-17T23:56:00.000Z,101002
